Time;durP1;ratioP1;P1;durP2;ratioP2;P2;SDS_P1;SDS_P2;PMS_P1;PMS_P2;Temp;Humidity;BMP_temperature;BMP_pressure;BME280_temperature;BME280_humidity;BME280_pressure;Samples;Min_cycle;Max_cycle;Signal;HPM_P1;HPM_P2
2021/05/04 00:00:06;;;;;;;8.88;5.65;;;8.50;60.00;;;6.80;59.01;95859.91;4991171;28;20050;-71
2021/05/04 00:02:32;;;;;;;8.13;5.07;;;8.50;60.90;;;6.79;59.31;95863.47;5001590;28;20072;-71
2021/05/04 00:04:58;;;;;;;6.35;5.15;;;8.50;61.00;;;6.78;58.64;95851.41;4988363;28;20137;-71
2021/05/04 00:07:24;;;;;;;7.22;5.45;;;8.50;61.30;;;6.74;59.70;95854.34;5000835;28;20041;-71
2021/05/04 00:09:50;;;;;;;6.60;4.90;;;8.50;61.40;;;6.72;59.58;95853.72;4990652;28;20510;-71
2021/05/04 00:12:15;;;;;;;6.32;5.20;;;8.50;61.50;;;6.70;59.71;95853.06;4993269;23;20045;-65
2021/05/04 00:14:41;;;;;;;6.85;5.30;;;8.50;61.50;;;6.69;60.05;95858.47;5002648;28;20041;-65
2021/05/04 00:17:07;;;;;;;6.68;4.88;;;8.40;62.00;;;6.67;60.18;95848.19;4994737;28;20720;-65
2021/05/04 00:19:33;;;;;;;6.75;5.05;;;8.40;62.20;;;6.66;60.59;95843.94;5017212;28;20040;-65
2021/05/04 00:21:58;;;;;;;7.07;5.15;;;8.40;62.20;;;6.61;59.85;95838.44;5047864;28;20041;-65
2021/05/04 00:24:24;;;;;;;8.35;5.30;;;8.40;61.90;;;6.59;60.45;95837.78;5012802;28;20025;-64
2021/05/04 00:26:50;;;;;;;8.32;5.07;;;8.30;61.70;;;6.57;60.63;95836.34;5028018;28;20103;-65
2021/05/04 00:29:16;;;;;;;8.45;5.07;;;8.30;62.20;;;6.53;59.94;95841.06;5012979;28;20037;-65
2021/05/04 00:31:41;;;;;;;6.65;4.85;;;8.30;62.10;;;6.51;60.62;95829.97;5046095;28;20095;-65
2021/05/04 00:34:07;;;;;;;6.53;4.97;;;8.20;62.30;;;6.47;60.65;95827.88;5012271;28;20037;-65
2021/05/04 00:36:33;;;;;;;7.15;5.50;;;8.20;62.50;;;6.42;60.29;95820.56;5015948;28;20090;-66
2021/05/04 00:38:59;;;;;;;5.75;4.97;;;8.20;62.60;;;6.39;60.53;95826.13;5011882;28;20475;-66
2021/05/04 00:41:25;;;;;;;7.03;5.13;;;8.10;62.70;;;6.38;61.09;95824.50;5027764;28;20382;-66
2021/05/04 00:43:51;;;;;;;9.50;4.82;;;8.10;63.20;;;6.35;61.28;95819.59;5011929;28;20041;-66
2021/05/04 00:46:16;;;;;;;7.45;5.55;;;8.10;63.40;;;6.31;60.96;95823.53;5012400;28;20508;-66
2021/05/04 00:48:42;;;;;;;6.93;4.88;;;8.00;63.90;;;6.28;61.24;95813.41;4995539;28;20029;-66
2021/05/04 00:51:09;;;;;;;6.32;4.78;;;8.00;64.00;;;6.23;61.85;95815.72;4996178;28;20158;-66
2021/05/04 00:53:34;;;;;;;6.57;5.03;;;7.90;64.20;;;6.20;62.11;95805.63;4975905;28;20131;-66
2021/05/04 00:56:01;;;;;;;6.53;5.10;;;7.90;64.30;;;6.13;61.96;95803.69;5027126;28;20506;-66
2021/05/04 00:58:27;;;;;;;6.45;5.22;;;7.80;64.20;;;6.08;62.23;95794.72;5024375;28;20033;-66
2021/05/04 01:00:52;;;;;;;6.70;4.95;;;7.80;64.00;;;6.03;62.10;95789.19;4995733;28;20413;-66
2021/05/04 01:03:18;;;;;;;6.78;4.97;;;7.70;64.50;;;5.97;61.93;95789.88;5028219;28;20033;-66
2021/05/04 01:05:44;;;;;;;7.55;5.05;;;7.70;64.30;;;5.91;62.34;95786.13;5027044;28;20082;-66
2021/05/04 01:08:10;;;;;;;7.80;4.88;;;7.60;64.40;;;5.91;62.73;95783.53;5028328;28;20068;-66
2021/05/04 01:10:35;;;;;;;8.15;5.10;;;7.60;64.60;;;5.88;62.19;95781.19;5011672;28;20041;-67
2021/05/04 01:13:01;;;;;;;7.10;4.85;;;7.60;64.80;;;5.85;63.05;95777.13;5011537;28;20124;-66
2021/05/04 01:15:29;;;;;;;6.47;5.13;;;7.60;64.80;;;5.84;62.28;95775.50;5011521;28;20056;-66
2021/05/04 01:17:54;;;;;;;6.93;4.47;;;7.60;64.50;;;5.81;62.65;95770.63;5027976;28;20044;-66
2021/05/04 01:20:20;;;;;;;7.00;5.05;;;7.60;64.40;;;5.79;62.79;95769.97;5011240;28;20033;-66
2021/05/04 01:22:46;;;;;;;5.68;5.00;;;7.50;65.00;;;5.78;63.20;95765.72;5027528;28;20065;-66
2021/05/04 01:25:12;;;;;;;7.63;4.65;;;7.50;65.00;;;5.74;62.69;95763.63;5028152;28;20041;-66
2021/05/04 01:27:38;;;;;;;5.72;4.40;;;7.40;64.60;;;5.73;62.67;95764.63;5010799;28;20043;-66
2021/05/04 01:30:05;;;;;;;4.93;3.92;;;7.40;64.90;;;5.69;63.08;95763.31;5028311;28;20033;-66
2021/05/04 01:32:31;;;;;;;5.32;3.67;;;7.30;64.60;;;5.67;62.83;95762.69;5027513;28;20033;-66
2021/05/04 01:34:57;;;;;;;5.85;3.80;;;7.30;64.70;;;5.62;62.41;95754.50;5011854;28;20033;-66
2021/05/04 01:37:23;;;;;;;4.75;3.70;;;7.30;65.10;;;5.58;62.77;95758.44;5027206;28;20130;-66
2021/05/04 01:39:50;;;;;;;4.05;2.92;;;7.10;65.20;;;5.56;62.42;95761.22;5014663;28;20089;-66
2021/05/04 01:42:17;;;;;;;4.43;3.33;;;7.20;65.40;;;5.52;63.11;95755.53;5031943;28;20083;-66
2021/05/04 01:44:43;;;;;;;4.72;3.67;;;7.10;65.30;;;5.50;63.19;95751.47;5031648;28;20440;-66
2021/05/04 01:47:09;;;;;;;5.38;3.63;;;7.10;65.60;;;5.48;63.89;95750.81;5008480;28;20095;-65
2021/05/04 01:49:35;;;;;;;3.80;3.17;;;7.10;66.00;;;5.45;63.64;95751.97;4982081;28;20037;-66
2021/05/04 01:52:01;;;;;;;4.38;3.20;;;7.10;66.00;;;5.42;63.74;95749.66;5050044;28;20216;-66
2021/05/04 01:54:27;;;;;;;4.25;2.90;;;7.10;66.10;;;5.40;63.72;95756.03;5005142;28;20029;-65
2021/05/04 01:56:54;;;;;;;4.90;3.35;;;7.00;65.90;;;5.38;63.34;95748.34;5031636;28;20451;-65
2021/05/04 01:59:21;;;;;;;4.72;3.25;;;7.00;66.10;;;5.38;63.71;95743.16;5031816;28;20104;-65
2021/05/04 02:01:46;;;;;;;4.43;2.97;;;7.00;66.40;;;5.36;63.65;95739.88;5031150;28;20579;-66
2021/05/04 02:04:12;;;;;;;5.90;2.75;;;6.90;66.50;;;5.34;64.03;95741.03;4998918;28;20033;-66
2021/05/04 02:06:38;;;;;;;4.32;2.88;;;7.00;66.60;;;5.29;64.07;95744.16;5031187;28;20033;-65
2021/05/04 02:09:05;;;;;;;5.95;3.33;;;6.90;66.60;;;5.26;63.84;95738.44;5014287;28;20422;-64
2021/05/04 02:11:31;;;;;;;5.28;3.05;;;6.80;67.00;;;5.24;64.10;95736.00;5014193;28;20033;-65
2021/05/04 02:13:57;;;;;;;4.10;3.00;;;6.90;66.90;;;5.23;64.48;95732.59;5014485;28;20044;-66
2021/05/04 02:16:22;;;;;;;3.60;2.90;;;6.80;66.90;;;5.21;64.68;95733.75;5014263;28;20029;-65
2021/05/04 02:18:48;;;;;;;5.22;2.88;;;6.70;67.00;;;5.18;64.75;95726.22;5049365;28;20056;-65
2021/05/04 02:21:16;;;;;;;5.18;3.03;;;6.70;67.10;;;5.13;64.47;95725.91;5031188;28;20029;-65
2021/05/04 02:23:43;;;;;;;3.63;2.58;;;6.60;67.50;;;5.07;64.28;95723.97;5031245;28;20102;-65
2021/05/04 02:26:09;;;;;;;3.50;2.70;;;6.60;67.50;;;5.03;64.85;95722.66;5031234;28;20068;-65
2021/05/04 02:28:35;;;;;;;4.53;2.65;;;6.60;67.80;;;5.00;64.75;95712.56;5031247;28;20025;-65
2021/05/04 02:31:01;;;;;;;3.28;2.20;;;6.40;68.10;;;4.97;65.13;95718.91;5049226;28;20033;-65
2021/05/04 02:33:29;;;;;;;3.45;2.65;;;6.50;68.20;;;4.96;65.36;95713.84;5011097;28;20462;-65
2021/05/04 02:35:58;;;;;;;3.05;2.50;;;6.50;68.30;;;4.92;65.33;95706.38;5015656;28;20060;-66
2021/05/04 02:38:25;;;;;;;3.10;2.47;;;6.40;68.40;;;4.89;65.55;95705.88;5031131;28;20036;-66
2021/05/04 02:40:51;;;;;;;4.53;2.70;;;6.40;68.60;;;4.87;65.35;95703.44;5013926;28;20278;-66
2021/05/04 02:43:16;;;;;;;3.80;3.03;;;6.40;68.70;;;4.87;65.53;95698.22;4999200;28;20521;-66
2021/05/04 02:45:42;;;;;;;4.05;2.28;;;6.40;68.70;;;4.87;65.75;95703.44;5031261;28;20091;-66
2021/05/04 02:48:08;;;;;;;2.85;2.35;;;6.40;68.60;;;4.86;65.58;95690.56;4991279;28;20037;-65
2021/05/04 02:50:34;;;;;;;2.85;2.30;;;6.40;68.80;;;4.83;65.58;95691.72;4988677;28;20087;-65
2021/05/04 02:52:59;;;;;;;3.45;2.65;;;6.40;68.90;;;4.84;65.51;95688.13;4998038;28;20069;-65
2021/05/04 02:55:25;;;;;;;4.45;2.80;;;6.50;69.00;;;4.84;65.84;95679.50;5014966;28;20041;-65
2021/05/04 02:57:51;;;;;;;3.75;2.33;;;6.50;68.80;;;4.86;66.05;95680.16;4998841;28;20032;-65
2021/05/04 03:00:19;;;;;;;3.30;2.45;;;6.50;68.60;;;4.86;66.35;95677.53;5031976;28;20390;-66
2021/05/04 03:02:45;;;;;;;4.07;2.33;;;6.50;69.00;;;4.86;66.13;95677.53;5000013;28;20047;-66
2021/05/04 03:05:11;;;;;;;4.82;2.90;;;6.60;68.90;;;4.84;66.25;95677.72;5032237;28;20514;-66
2021/05/04 03:07:37;;;;;;;3.80;2.40;;;6.50;69.10;;;4.83;66.54;95675.28;5031422;28;20037;-65
2021/05/04 03:10:05;;;;;;;3.47;2.80;;;6.50;68.90;;;4.81;66.86;95674.63;5016248;28;20148;-66
2021/05/04 03:12:31;;;;;;;3.53;2.80;;;6.40;69.10;;;4.75;66.58;95673.50;5015879;28;20037;-65
2021/05/04 03:14:56;;;;;;;4.78;3.20;;;6.30;68.90;;;4.71;66.70;95671.34;5032730;28;20105;-66
2021/05/04 03:17:22;;;;;;;3.65;2.42;;;6.20;69.20;;;4.66;66.51;95663.22;5031517;28;20408;-68
2021/05/04 03:19:48;;;;;;;3.28;2.22;;;6.10;69.60;;;4.64;66.55;95658.16;5015771;28;20563;-65
2021/05/04 03:22:13;;;;;;;4.00;2.53;;;6.20;69.60;;;4.62;66.79;95660.13;5020067;28;20621;-66
2021/05/04 03:24:39;;;;;;;3.50;2.60;;;6.20;69.40;;;4.62;66.71;95657.53;5032161;28;20037;-66
2021/05/04 03:27:05;;;;;;;5.25;2.97;;;6.20;69.40;;;4.62;66.98;95654.91;5013088;28;20065;-66
2021/05/04 03:29:31;;;;;;;6.18;2.75;;;6.40;69.50;;;4.65;66.86;95656.38;5031841;28;20029;-66
2021/05/04 03:31:57;;;;;;;4.15;2.70;;;6.40;69.20;;;4.62;67.08;95654.91;5031750;28;20165;-66
2021/05/04 03:34:22;;;;;;;3.33;2.70;;;6.30;69.30;;;4.62;67.04;95654.91;5011831;28;20026;-67
2021/05/04 03:36:48;;;;;;;4.35;2.70;;;6.20;69.50;;;4.59;67.05;95657.84;5014869;28;20686;-67
2021/05/04 03:39:14;;;;;;;3.47;2.80;;;6.20;69.30;;;4.56;67.02;95658.19;5013967;28;20485;-67
2021/05/04 03:41:40;;;;;;;6.68;2.58;;;6.10;69.50;;;4.54;66.72;95655.75;5014281;28;20037;-66
2021/05/04 03:44:05;;;;;;;2.45;2.25;;;6.10;69.50;;;4.53;67.26;95650.69;5031366;28;20033;-67
2021/05/04 03:46:31;;;;;;;3.45;2.50;;;6.10;69.70;;;4.50;66.92;95644.00;5031689;28;20029;-66
2021/05/04 03:48:57;;;;;;;3.80;2.40;;;6.10;69.70;;;4.50;67.44;95649.22;5015144;28;20025;-67
2021/05/04 03:51:23;;;;;;;3.60;2.40;;;6.10;69.80;;;4.52;67.32;95649.03;5030403;28;20098;-67
2021/05/04 03:53:48;;;;;;;3.42;2.50;;;6.10;69.60;;;4.51;67.15;95656.03;5010974;28;20457;-67
2021/05/04 03:56:14;;;;;;;3.75;2.58;;;6.20;69.80;;;4.48;67.08;95642.53;5018961;28;20119;-66
2021/05/04 03:58:40;;;;;;;5.05;2.72;;;6.10;69.90;;;4.46;67.39;95649.69;5015002;28;20040;-66
2021/05/04 04:01:05;;;;;;;3.35;2.60;;;6.00;70.10;;;4.45;67.36;95642.88;5031204;28;20049;-66
2021/05/04 04:03:31;;;;;;;3.47;2.35;;;6.00;70.20;;;4.46;67.83;95647.09;5047637;28;20082;-66
2021/05/04 04:05:57;;;;;;;3.45;2.55;;;6.10;69.90;;;4.47;67.32;95638.31;5030967;28;20136;-67
2021/05/04 04:08:23;;;;;;;2.42;2.22;;;6.10;70.00;;;4.47;67.45;95640.91;4997520;28;20029;-66
2021/05/04 04:10:48;;;;;;;2.92;2.42;;;6.10;69.70;;;4.49;67.58;95639.78;5014392;28;20098;-67
2021/05/04 04:13:14;;;;;;;4.03;2.28;;;6.10;70.00;;;4.52;67.35;95636.03;5014157;28;20056;-67
2021/05/04 04:15:40;;;;;;;4.18;2.42;;;6.20;69.50;;;4.52;67.39;95636.84;5013499;28;20045;-66
2021/05/04 04:18:06;;;;;;;2.67;2.20;;;6.10;69.50;;;4.52;67.58;95631.63;5031252;28;20029;-66
2021/05/04 04:20:32;;;;;;;3.00;2.20;;;6.10;69.80;;;4.56;67.38;95625.13;5014467;28;20025;-66
2021/05/04 04:22:58;;;;;;;4.43;2.47;;;6.30;69.40;;;4.60;67.42;95630.84;5014243;28;20063;-67
2021/05/04 04:25:23;;;;;;;4.78;2.50;;;6.30;69.10;;;4.63;67.44;95632.28;5030299;28;20031;-67
2021/05/04 04:27:49;;;;;;;3.88;2.03;;;6.30;69.10;;;4.66;67.36;95629.34;5014190;28;20061;-67
2021/05/04 04:30:16;;;;;;;4.25;2.05;;;6.40;68.90;;;4.70;67.45;95623.66;5030953;28;20032;-67
2021/05/04 04:32:43;;;;;;;3.60;2.38;;;6.50;68.90;;;4.74;67.78;95624.94;5014114;28;20048;-64
2021/05/04 04:35:10;;;;;;;3.20;2.25;;;6.50;68.60;;;4.78;67.76;95622.84;5030998;28;20043;-65
2021/05/04 04:37:36;;;;;;;3.15;2.20;;;6.50;68.50;;;4.83;67.45;95623.97;5013399;28;20046;-66
2021/05/04 04:40:03;;;;;;;3.47;2.40;;;6.60;68.20;;;4.89;67.66;95617.28;5014032;28;20041;-66
2021/05/04 04:42:29;;;;;;;4.00;2.13;;;6.70;67.80;;;4.95;67.23;95626.22;5029224;28;20437;-65
2021/05/04 04:44:55;;;;;;;3.30;2.22;;;6.80;67.70;;;5.02;66.86;95622.00;5014462;28;20040;-65
2021/05/04 04:47:20;;;;;;;2.50;2.20;;;6.90;67.40;;;5.09;66.85;95620.34;5016899;28;20038;-66
2021/05/04 04:49:46;;;;;;;2.97;2.30;;;7.00;67.20;;;5.16;66.90;95618.69;5007830;28;20083;-66
2021/05/04 04:52:12;;;;;;;2.95;2.47;;;7.00;67.10;;;5.20;66.53;95619.97;5013504;28;20428;-66
2021/05/04 04:54:38;;;;;;;3.38;2.50;;;7.00;67.30;;;5.24;66.47;95621.28;5013976;28;20025;-66
2021/05/04 04:57:04;;;;;;;4.03;2.40;;;7.10;67.20;;;5.28;66.72;95625.19;5029818;28;20494;-66
2021/05/04 04:59:29;;;;;;;3.33;2.10;;;7.10;67.30;;;5.33;66.25;95615.06;5013451;28;20544;-65
2021/05/04 05:01:55;;;;;;;3.33;2.63;;;7.10;67.10;;;5.35;66.82;95602.66;5041706;28;20075;-68
2021/05/04 05:04:21;;;;;;;3.55;2.40;;;7.10;66.90;;;5.37;66.63;95605.09;5016879;28;20461;-69
2021/05/04 05:06:47;;;;;;;3.03;2.38;;;7.10;66.90;;;5.42;66.63;95610.59;4996880;28;20459;-68
2021/05/04 05:09:13;;;;;;;3.05;2.38;;;7.20;66.40;;;5.47;66.63;95611.75;5011078;28;20725;-67
2021/05/04 05:11:38;;;;;;;5.45;2.72;;;7.30;66.10;;;5.53;66.43;95608.47;5011383;28;20246;-67
2021/05/04 05:14:05;;;;;;;3.13;2.30;;;7.40;65.80;;;5.63;65.83;95612.66;5002226;28;20127;-67
2021/05/04 05:16:31;;;;;;;3.53;2.30;;;7.50;65.50;;;5.72;65.84;95609.03;5013403;28;20036;-68
2021/05/04 05:18:57;;;;;;;3.35;2.38;;;7.60;64.90;;;5.82;66.03;95593.97;4978176;28;20034;-67
2021/05/04 05:21:23;;;;;;;4.70;2.63;;;7.80;64.60;;;5.93;65.44;95591.00;5013485;28;20036;-68
2021/05/04 05:23:49;;;;;;;6.82;4.00;;;8.00;64.00;;;6.07;65.59;95586.81;5012427;28;20037;-66
2021/05/04 05:26:18;;;;;;;6.55;4.53;;;8.20;63.30;;;6.21;65.04;95593.09;5012838;28;20051;-67
2021/05/04 05:28:44;;;;;;;8.60;6.65;;;8.40;62.60;;;6.37;65.38;95587.78;5013443;28;20186;-67
2021/05/04 05:31:09;;;;;;;5.45;2.65;;;8.60;62.60;;;6.49;65.08;95578.50;5013135;28;20124;-67
2021/05/04 05:33:35;;;;;;;4.75;2.72;;;8.60;61.60;;;6.60;64.20;95578.09;5029117;28;20423;-67
2021/05/04 05:36:01;;;;;;;6.22;3.70;;;8.60;61.00;;;6.71;64.80;95580.28;4996863;28;20036;-67
2021/05/04 05:38:27;;;;;;;10.60;5.90;;;8.90;60.70;;;6.85;64.26;95570.03;5009476;28;20047;-68
2021/05/04 05:40:53;;;;;;;10.07;5.07;;;9.10;59.80;;;7.02;63.45;95572.31;5012581;28;20412;-68
2021/05/04 05:43:19;;;;;;;6.28;3.40;;;9.30;59.20;;;7.20;63.92;95571.13;5029410;28;20116;-68
2021/05/04 05:45:44;;;;;;;3.70;2.67;;;9.60;58.30;;;7.40;62.90;95568.75;4992954;28;20118;-67
2021/05/04 05:48:10;;;;;;;5.20;2.70;;;9.90;57.30;;;7.62;62.51;95573.06;5012944;28;20114;-68
2021/05/04 05:50:36;;;;;;;5.38;2.42;;;10.10;56.30;;;7.82;61.95;95574.09;5012022;28;20393;-69
2021/05/04 05:53:02;;;;;;;4.75;2.08;;;10.20;55.10;;;8.01;61.85;95562.22;4996927;28;20033;-67
2021/05/04 05:55:28;;;;;;;3.33;2.30;;;10.50;54.40;;;8.23;61.70;95563.06;5028944;28;20584;-68
2021/05/04 05:57:53;;;;;;;5.22;2.17;;;10.80;53.80;;;8.45;60.83;95564.69;4980256;28;20072;-68
2021/05/04 06:00:20;;;;;;;4.88;2.50;;;11.10;52.40;;;8.70;60.57;95564.28;5021629;28;21222;-67
2021/05/04 06:02:46;;;;;;;5.35;2.95;;;11.40;52.10;;;8.95;60.20;95568.09;5026703;28;20049;-65
2021/05/04 06:05:13;;;;;;;4.97;2.35;;;11.70;52.10;;;9.17;60.54;95556.53;5008525;28;20608;-68
2021/05/04 06:07:39;;;;;;;4.25;2.60;;;11.80;51.60;;;9.39;59.98;95559.06;4992863;28;20040;-66
2021/05/04 06:10:05;;;;;;;3.30;2.30;;;12.10;51.60;;;9.57;59.50;95551.50;5029218;28;20035;-66
2021/05/04 06:12:31;;;;;;;5.88;2.65;;;12.10;51.60;;;9.73;58.29;95548.53;5028702;28;20111;-65
2021/05/04 06:14:57;;;;;;;2.80;1.95;;;12.10;50.30;;;9.86;58.69;95552.19;5013020;28;20041;-71
2021/05/04 06:17:22;;;;;;;4.20;2.15;;;12.10;50.30;;;9.94;57.52;95547.56;5013090;28;20114;-65
2021/05/04 06:19:48;;;;;;;3.50;2.17;;;12.20;49.90;;;10.05;57.96;95552.25;5028548;28;20045;-69
2021/05/04 06:22:14;;;;;;;5.00;2.47;;;12.30;49.50;;;10.18;56.94;95559.31;5025618;28;20123;-66
2021/05/04 06:24:40;;;;;;;4.88;2.10;;;12.60;49.80;;;10.33;56.14;95546.84;5014084;28;20044;-70
2021/05/04 06:27:05;;;;;;;4.50;2.20;;;12.70;49.10;;;10.45;56.19;95546.28;5031546;28;20060;-65
2021/05/04 06:29:31;;;;;;;3.47;2.40;;;12.70;49.10;;;10.56;55.90;95541.22;5050194;28;20128;-65
2021/05/04 06:32:10;;;;;;;3.10;2.00;;;12.80;49.10;;;10.64;54.86;95532.31;5031200;28;20075;-65
2021/05/04 06:34:39;;;;;;;3.58;1.77;;;12.70;48.30;;;10.69;55.53;95537.78;5034372;28;20029;-69
2021/05/04 06:37:04;;;;;;;5.85;2.30;;;12.80;48.90;;;10.77;55.22;95529.66;4983015;28;20029;-70
2021/05/04 06:39:30;;;;;;;3.30;2.20;;;12.90;48.20;;;10.80;54.34;95523.19;5031738;28;20103;-69
2021/05/04 06:41:59;;;;;;;5.85;2.13;;;12.80;47.80;;;10.85;53.70;95520.75;5032226;28;20124;-66
2021/05/04 06:44:27;;;;;;;3.72;2.00;;;12.90;47.40;;;10.89;54.48;95521.97;5031236;28;20033;-66
2021/05/04 06:46:53;;;;;;;2.97;2.15;;;12.90;47.90;;;10.94;54.61;95519.53;5031437;28;20500;-65
2021/05/04 06:49:19;;;;;;;4.45;1.58;;;12.90;47.30;;;10.93;53.48;95510.03;4987977;28;20052;-66
2021/05/04 06:51:44;;;;;;;2.80;1.85;;;12.90;46.70;;;10.95;52.96;95508.81;5040902;28;20469;-69
2021/05/04 06:54:10;;;;;;;4.15;3.13;;;12.90;47.00;;;11.03;53.38;95513.03;5031200;28;20520;-72
2021/05/04 06:56:36;;;;;;;2.92;2.38;;;13.20;46.80;;;11.12;53.63;95508.38;5031998;28;20522;-65
2021/05/04 06:59:02;;;;;;;2.28;1.70;;;13.40;46.00;;;11.17;53.29;95503.28;5032177;28;20079;-65
2021/05/04 07:01:27;;;;;;;2.70;1.70;;;13.40;45.30;;;11.23;53.30;95503.25;5001239;28;20479;-64
2021/05/04 07:03:53;;;;;;;5.30;1.83;;;13.40;45.40;;;11.33;52.49;95494.94;5032117;28;20029;-64
2021/05/04 07:06:19;;;;;;;2.55;1.70;;;13.60;45.00;;;11.44;52.05;95496.91;5031921;28;20496;-64
2021/05/04 07:08:45;;;;;;;4.60;1.80;;;13.90;45.00;;;11.57;51.49;95493.44;5015964;28;20048;-72
2021/05/04 07:11:10;;;;;;;2.70;1.80;;;14.10;43.10;;;11.71;51.01;95499.44;4999041;28;20061;-70
2021/05/04 07:13:36;;;;;;;4.50;2.13;;;14.30;43.30;;;11.89;51.06;95499.56;5013903;28;20057;-68
2021/05/04 07:16:02;;;;;;;3.45;1.80;;;14.60;42.80;;;12.03;51.06;95485.31;5013900;28;20057;-67
2021/05/04 07:18:28;;;;;;;2.72;1.90;;;14.60;42.40;;;12.25;51.28;95486.56;4998533;28;20053;-68
2021/05/04 07:20:53;;;;;;;6.78;2.30;;;15.10;42.60;;;12.47;50.48;95483.56;5013338;28;20111;-70
2021/05/04 07:23:19;;;;;;;2.83;2.03;;;15.40;41.70;;;12.65;50.55;95480.94;5000090;28;20043;-67
2021/05/04 07:25:45;;;;;;;2.95;2.10;;;15.30;40.90;;;12.79;49.97;95479.81;5013343;28;20556;-65
2021/05/04 07:28:11;;;;;;;4.63;2.00;;;15.40;41.60;;;12.92;50.28;95480.72;5014688;28;20582;-65
2021/05/04 07:30:43;;;;;;;3.42;2.63;;;15.50;41.30;;;13.04;50.16;95473.69;5011770;28;20037;-65
2021/05/04 07:33:08;;;;;;;5.25;3.10;;;15.60;40.90;;;13.22;49.50;95471.09;4990685;28;20045;-68
2021/05/04 07:35:34;;;;;;;3.70;2.00;;;16.20;40.80;;;13.46;48.96;95472.03;5013743;28;20060;-70
2021/05/04 07:38:00;;;;;;;3.75;1.98;;;16.70;38.70;;;13.78;49.24;95469.97;5022217;28;20075;-65
2021/05/04 07:40:26;;;;;;;3.20;2.00;;;17.40;37.00;;;14.06;47.86;95470.19;5015009;28;20432;-64
2021/05/04 07:42:52;;;;;;;4.75;2.22;;;17.70;36.60;;;14.41;47.79;95454.38;5014561;28;20472;-70
2021/05/04 07:45:18;;;;;;;3.35;1.65;;;18.40;35.90;;;14.74;47.04;95462.84;4999005;28;20067;-65
2021/05/04 07:47:45;;;;;;;3.90;2.08;;;18.40;35.00;;;14.99;46.78;95458.94;4981760;28;20077;-66
2021/05/04 07:50:12;;;;;;;2.80;1.60;;;18.50;34.60;;;15.21;45.74;95453.84;5007399;28;20048;-67
2021/05/04 07:52:38;;;;;;;2.67;1.73;;;18.40;33.60;;;15.45;44.42;95451.13;5012009;28;20033;-66
2021/05/04 07:55:05;;;;;;;4.10;2.05;;;19.00;32.30;;;15.78;43.94;95453.91;5048320;28;20123;-71
2021/05/04 07:57:31;;;;;;;2.90;1.67;;;19.40;33.10;;;16.09;44.97;95451.81;5022068;28;20060;-66
2021/05/04 07:59:57;;;;;;;2.88;1.80;;;19.50;32.90;;;16.29;43.58;95444.19;4998239;28;20052;-69
2021/05/04 08:02:23;;;;;;;3.15;2.00;;;19.60;32.10;;;16.53;43.14;95435.03;5027940;28;20037;-68
2021/05/04 08:04:49;;;;;;;3.42;1.90;;;19.70;32.10;;;16.68;43.50;95444.31;5023725;28;20302;-68
2021/05/04 08:07:15;;;;;;;5.22;1.80;;;19.50;31.60;;;16.71;42.33;95436.66;5015523;28;20036;-68
2021/05/04 08:09:40;;;;;;;2.47;1.70;;;19.10;31.70;;;16.70;40.53;95444.84;5005993;28;20043;-66
2021/05/04 08:12:07;;;;;;;3.25;1.52;;;18.70;30.50;;;16.64;40.98;95437.84;5014208;28;20033;-67
2021/05/04 08:14:33;;;;;;;3.28;1.70;;;18.60;32.00;;;16.64;40.26;95435.19;5048976;28;20032;-71
2021/05/04 08:16:59;;;;;;;4.10;1.65;;;19.00;32.40;;;16.69;40.54;95433.44;5013611;28;20067;-70
2021/05/04 08:19:25;;;;;;;3.97;1.50;;;19.10;32.40;;;16.76;40.19;95439.41;5010914;28;20053;-66
2021/05/04 08:21:51;;;;;;;3.10;2.28;;;19.10;31.80;;;16.82;39.77;95442.94;5017646;28;20528;-65
2021/05/04 08:24:17;;;;;;;3.42;1.42;;;19.10;31.40;;;16.86;39.89;95440.59;4994615;28;20026;-65
2021/05/04 08:26:43;;;;;;;4.00;1.83;;;19.10;31.50;;;16.82;40.30;95434.97;5030138;28;20029;-65
2021/05/04 08:29:09;;;;;;;3.80;1.48;;;19.10;32.10;;;16.89;39.97;95416.97;5014076;28;20041;-69
2021/05/04 08:31:34;;;;;;;2.20;1.40;;;19.50;31.60;;;16.95;39.43;95423.16;5012808;28;20450;-70
2021/05/04 08:34:01;;;;;;;2.40;1.60;;;19.40;30.90;;;17.13;39.20;95414.91;5030464;28;20072;-66
2021/05/04 08:36:27;;;;;;;3.75;1.77;;;20.00;30.00;;;17.31;39.15;95427.09;4997508;28;20033;-67
2021/05/04 08:38:53;;;;;;;2.50;1.50;;;20.30;29.90;;;17.50;39.10;95412.44;4997417;28;20082;-69
2021/05/04 08:41:18;;;;;;;3.33;1.52;;;20.70;30.50;;;17.73;38.16;95408.72;5014105;28;20559;-70
2021/05/04 08:43:46;;;;;;;2.10;1.30;;;21.10;28.20;;;17.81;36.98;95412.78;5025838;28;20181;-67
2021/05/04 08:46:12;;;;;;;4.03;1.35;;;20.70;26.90;;;17.86;37.20;95421.63;5003968;28;20090;-68
2021/05/04 08:48:38;;;;;;;1.80;1.30;;;21.10;27.80;;;18.12;36.67;95420.03;5014296;28;20029;-66
2021/05/04 08:51:03;;;;;;;5.97;2.47;;;21.50;26.50;;;18.39;36.39;95411.19;5012693;28;20385;-67
2021/05/04 08:53:29;;;;;;;2.83;1.85;;;21.90;26.30;;;18.59;36.53;95408.69;5041704;28;20077;-66
2021/05/04 08:55:55;;;;;;;2.75;1.40;;;21.80;26.30;;;18.69;34.97;95408.78;5017937;28;20053;-66
2021/05/04 08:58:21;;;;;;;3.45;1.60;;;21.40;25.90;;;18.87;35.00;95404.91;5010088;28;20033;-66
2021/05/04 09:00:47;;;;;;;5.60;1.70;;;22.00;26.60;;;19.08;34.44;95409.28;5018785;28;20174;-69
2021/05/04 09:03:24;;;;;;;3.75;1.50;;;22.20;26.60;;;19.42;34.78;95404.34;5041768;28;20051;-68
2021/05/04 09:08:34;;;;;;;4.30;1.52;;;22.20;24.80;;;19.41;30.02;95384.06;5023447;28;20506;-67
2021/05/04 09:11:17;;;;;;;2.85;1.48;;;21.30;24.30;;;19.24;31.06;95407.50;4998450;28;20215;-68
2021/05/04 09:14:15;;;;;;;2.33;1.60;;;21.10;26.20;;;18.98;30.56;95380.69;5045747;28;20041;-71
2021/05/04 09:16:47;;;;;;;3.55;1.58;;;20.40;25.10;;;18.87;31.84;95397.72;5030561;28;20025;-66
2021/05/04 09:19:19;;;;;;;4.60;1.40;;;20.80;25.50;;;18.87;32.02;95403.03;5015223;28;20124;-69
2021/05/04 09:21:45;;;;;;;4.97;2.10;;;21.10;25.20;;;18.96;32.01;95390.00;5019926;28;20041;-66
2021/05/04 09:24:41;;;;;;;3.88;1.75;;;21.10;24.40;;;19.05;29.70;95395.69;4990896;28;20089;-66
2021/05/04 09:27:09;;;;;;;5.43;1.45;;;21.10;25.30;;;19.14;30.97;95394.09;4977942;28;20386;-66
2021/05/04 09:29:45;;;;;;;2.92;1.65;;;21.40;24.30;;;19.00;29.11;95400.97;5011827;28;20108;-71
2021/05/04 09:32:21;;;;;;;6.53;1.88;;;20.70;24.80;;;19.01;30.43;95386.56;5025705;28;20069;-67
2021/05/04 09:34:49;;;;;;;4.65;1.58;;;20.90;25.70;;;19.03;30.41;95363.16;5012269;28;20404;-70
2021/05/04 09:37:40;;;;;;;4.03;1.42;;;20.80;25.30;;;18.94;30.06;95370.81;5012659;28;20450;-69
2021/05/04 09:40:23;;;;;;;3.25;1.23;;;20.60;25.40;;;19.03;30.62;95371.16;5003228;28;20116;-68
2021/05/04 09:43:09;;;;;;;5.45;2.13;;;21.10;26.00;;;18.98;29.15;95371.91;5009180;28;20139;-67
2021/05/04 09:45:37;;;;;;;7.80;1.70;;;20.80;25.80;;;19.06;30.45;95366.09;5006045;28;20419;-68
2021/05/04 09:48:22;;;;;;;2.95;1.33;;;21.10;26.00;;;19.24;30.66;95383.50;4994060;28;20455;-67
2021/05/04 09:50:57;;;;;;;4.80;1.77;;;21.40;24.90;;;19.30;30.33;95387.00;5024489;28;20504;-68
2021/05/04 09:53:47;;;;;;;2.88;1.33;;;21.60;25.10;;;19.38;30.98;95363.28;5017490;28;20500;-67
2021/05/04 09:56:15;;;;;;;2.22;1.20;;;21.70;25.70;;;19.54;30.04;95399.63;5015610;28;20021;-67
2021/05/04 09:58:49;;;;;;;3.65;1.65;;;22.00;25.30;;;19.53;30.48;95363.34;5028923;28;20029;-67
2021/05/04 10:01:19;;;;;;;3.78;1.70;;;21.70;25.30;;;19.64;29.53;95355.38;5012916;28;20037;-65
2021/05/04 10:03:48;;;;;;;2.00;1.47;;;21.60;24.50;;;19.69;29.51;95348.19;5027914;28;20045;-66
2021/05/04 10:06:18;;;;;;;2.13;1.40;;;21.70;24.40;;;19.78;29.14;95359.13;5003076;28;20036;-65
2021/05/04 10:08:45;;;;;;;3.73;1.50;;;21.90;25.10;;;19.88;29.40;95345.78;5016183;28;20045;-66
2021/05/04 10:11:13;;;;;;;4.57;2.13;;;22.10;25.30;;;19.98;30.48;95340.47;5032509;28;20029;-65
2021/05/04 10:13:41;;;;;;;2.85;1.40;;;22.10;25.20;;;20.08;29.80;95337.81;4995066;28;20033;-70
2021/05/04 10:16:07;;;;;;;4.63;1.58;;;22.10;24.80;;;20.10;30.10;95343.66;5002011;28;20029;-68
2021/05/04 10:18:33;;;;;;;3.25;1.20;;;22.00;24.30;;;20.14;30.41;95342.09;4996034;28;20029;-67
2021/05/04 10:21:02;;;;;;;4.13;1.35;;;22.60;24.70;;;20.12;29.85;95346.88;5031785;28;20095;-67
2021/05/04 10:23:29;;;;;;;1.80;1.10;;;22.40;24.90;;;20.33;29.22;95325.50;4997281;28;20440;-67
2021/05/04 10:26:14;;;;;;;5.38;1.67;;;22.90;24.60;;;20.51;28.27;95338.34;4999002;28;20113;-69
2021/05/04 10:28:41;;;;;;;2.47;1.33;;;23.00;24.40;;;20.60;29.69;95322.56;5032808;28;20021;-68